Time;durP1;ratioP1;P1;durP2;ratioP2;P2;SDS_P1;SDS_P2;PMS_P1;PMS_P2;Temp;Humidity;BMP_temperature;BMP_pressure;BME280_temperature;BME280_humidity;BME280_pressure;Samples;Min_cycle;Max_cycle;Signal;HPM_P1;HPM_P2
2022/06/29 00:00:09;;;;;;;8.93;4.25;;;16.50;99.90;;;;;;5043450;28;20307;-53
2022/06/29 00:02:35;;;;;;;7.75;4.95;;;16.50;99.90;;;;;;5039363;28;20053;-52
2022/06/29 00:05:02;;;;;;;7.95;4.90;;;16.50;99.90;;;;;;5034613;28;20037;-50
2022/06/29 00:07:28;;;;;;;6.07;4.88;;;16.50;99.90;;;;;;5032989;28;20040;-52
2022/06/29 00:09:54;;;;;;;6.75;4.07;;;16.50;99.90;;;;;;5042654;28;20568;-52
2022/06/29 00:12:19;;;;;;;8.13;4.20;;;16.50;99.90;;;;;;5008228;28;20414;-52
2022/06/29 00:14:45;;;;;;;8.73;4.65;;;16.50;99.90;;;;;;5035981;28;20036;-51
2022/06/29 00:17:12;;;;;;;9.40;5.20;;;16.50;99.90;;;;;;5023567;28;20127;-51
2022/06/29 00:19:38;;;;;;;9.05;4.60;;;16.50;99.90;;;;;;5031122;28;20040;-52
2022/06/29 00:22:05;;;;;;;7.93;5.07;;;16.50;99.90;;;;;;5031131;28;20487;-52
2022/06/29 00:24:32;;;;;;;10.55;5.03;;;16.40;99.90;;;;;;5039528;28;20064;-53
2022/06/29 00:26:58;;;;;;;6.90;3.72;;;16.40;99.90;;;;;;5037755;28;20044;-52
2022/06/29 00:29:24;;;;;;;8.02;5.18;;;16.40;99.90;;;;;;5043790;28;20037;-51
2022/06/29 00:31:50;;;;;;;6.30;3.95;;;16.40;99.90;;;;;;5039643;28;20037;-53
2022/06/29 00:34:16;;;;;;;8.75;4.65;;;16.40;99.90;;;;;;5031119;28;20506;-52
2022/06/29 00:36:42;;;;;;;6.47;4.78;;;16.40;99.90;;;;;;5018007;28;20095;-52
2022/06/29 00:39:07;;;;;;;5.60;4.75;;;16.40;99.90;;;;;;5041430;28;20037;-51
2022/06/29 00:41:38;;;;;;;8.57;4.95;;;16.40;99.90;;;;;;5038427;28;20038;-52
2022/06/29 00:44:04;;;;;;;7.70;4.90;;;16.40;99.90;;;;;;5027246;28;20151;-53
2022/06/29 00:46:30;;;;;;;7.40;4.55;;;16.40;99.90;;;;;;5039726;28;20068;-54
2022/06/29 00:48:55;;;;;;;9.10;5.47;;;16.40;99.90;;;;;;5042368;28;20122;-53
2022/06/29 00:51:22;;;;;;;5.82;4.18;;;16.40;99.90;;;;;;5024853;28;20135;-51
2022/06/29 00:53:50;;;;;;;6.40;3.97;;;16.40;99.90;;;;;;5010146;28;20044;-52
2022/06/29 00:56:19;;;;;;;7.53;4.97;;;16.40;99.90;;;;;;5045081;28;20114;-52
2022/06/29 00:58:46;;;;;;;6.90;4.35;;;16.40;99.90;;;;;;5039826;28;20079;-53
2022/06/29 01:01:14;;;;;;;6.45;3.92;;;16.30;99.90;;;;;;5042931;28;20428;-52
2022/06/29 01:03:39;;;;;;;6.47;3.90;;;16.30;99.90;;;;;;5020619;28;20179;-51
2022/06/29 01:06:06;;;;;;;8.18;4.20;;;16.30;99.90;;;;;;5040762;28;20127;-51
2022/06/29 01:08:32;;;;;;;8.55;5.50;;;16.30;99.90;;;;;;5039550;28;20555;-51
2022/06/29 01:10:58;;;;;;;7.55;5.10;;;16.20;99.90;;;;;;5041646;28;20044;-53
2022/06/29 01:13:23;;;;;;;8.60;6.20;;;16.20;99.90;;;;;;5034459;28;20387;-53
2022/06/29 01:15:49;;;;;;;8.57;5.47;;;16.20;99.90;;;;;;5039710;28;20087;-51
2022/06/29 01:18:15;;;;;;;8.18;5.55;;;16.20;99.90;;;;;;5037868;28;20041;-52
2022/06/29 01:20:41;;;;;;;9.93;5.55;;;16.10;99.90;;;;;;5031711;28;21125;-53
2022/06/29 01:23:06;;;;;;;8.68;5.25;;;16.10;99.90;;;;;;5027706;28;20053;-51
2022/06/29 01:25:32;;;;;;;9.68;5.88;;;16.10;99.90;;;;;;5030870;28;20071;-55
2022/06/29 01:27:58;;;;;;;6.72;4.47;;;16.10;99.90;;;;;;5024381;28;20041;-53
2022/06/29 01:30:24;;;;;;;8.60;4.75;;;16.10;99.90;;;;;;5041516;28;20475;-50
2022/06/29 01:32:50;;;;;;;10.93;5.53;;;16.10;99.90;;;;;;5039462;28;20479;-52
2022/06/29 01:35:17;;;;;;;6.00;4.93;;;16.10;99.90;;;;;;5022022;28;20033;-52
2022/06/29 01:37:43;;;;;;;8.75;5.03;;;16.10;99.90;;;;;;5032411;28;20041;-52
2022/06/29 01:40:10;;;;;;;7.28;4.68;;;16.10;99.90;;;;;;5036307;28;20063;-50
2022/06/29 01:42:37;;;;;;;11.00;6.20;;;16.10;99.90;;;;;;5040143;28;20080;-50
2022/06/29 01:45:03;;;;;;;11.77;5.28;;;16.00;99.90;;;;;;5040763;28;20408;-53
2022/06/29 01:47:29;;;;;;;10.73;6.18;;;16.00;99.90;;;;;;5038777;28;20144;-54
2022/06/29 01:49:54;;;;;;;10.50;6.00;;;16.00;99.90;;;;;;5033691;28;20484;-53
2022/06/29 01:52:20;;;;;;;6.93;4.20;;;16.00;99.90;;;;;;5018978;28;20046;-53
2022/06/29 01:54:46;;;;;;;10.25;6.20;;;16.00;99.90;;;;;;5016827;28;20716;-50
2022/06/29 01:57:12;;;;;;;8.50;5.68;;;16.00;99.90;;;;;;5038232;28;20037;-49
2022/06/29 01:59:37;;;;;;;9.38;5.20;;;16.00;99.90;;;;;;5038559;28;20046;-55
2022/06/29 02:02:03;;;;;;;7.97;6.00;;;15.90;99.90;;;;;;5043771;28;20045;-56
2022/06/29 02:04:29;;;;;;;6.32;4.80;;;15.90;99.90;;;;;;5036851;28;20511;-56
2022/06/29 02:06:55;;;;;;;7.32;5.00;;;15.90;99.90;;;;;;5023243;28;20045;-53
2022/06/29 02:09:20;;;;;;;7.35;6.03;;;15.90;99.90;;;;;;5036926;28;20037;-53
2022/06/29 02:11:46;;;;;;;10.05;6.53;;;15.90;99.90;;;;;;5036724;28;20115;-54
2022/06/29 02:14:13;;;;;;;8.60;5.95;;;15.90;99.90;;;;;;5035363;28;20072;-56
2022/06/29 02:16:38;;;;;;;6.20;5.55;;;15.90;99.90;;;;;;5038868;28;20040;-54
2022/06/29 02:19:04;;;;;;;8.38;6.53;;;15.80;99.90;;;;;;5025444;28;20089;-53
2022/06/29 02:21:30;;;;;;;7.68;6.05;;;15.90;99.90;;;;;;5037170;28;20192;-53
2022/06/29 02:23:56;;;;;;;6.75;4.85;;;15.90;99.90;;;;;;5033151;28;20120;-49
2022/06/29 02:26:21;;;;;;;6.43;5.22;;;15.90;99.90;;;;;;5034371;28;20037;-54
2022/06/29 02:28:47;;;;;;;7.60;6.07;;;15.90;99.90;;;;;;5042836;28;20572;-52
2022/06/29 02:36:41;;;;;;;8.48;4.45;;;16.00;99.90;;;;;;5030352;28;19917;-52
2022/06/29 02:39:07;;;;;;;10.68;6.60;;;15.90;99.90;;;;;;5025452;28;20067;-55
2022/06/29 02:41:32;;;;;;;9.20;6.97;;;15.90;99.90;;;;;;5038672;28;20040;-53
2022/06/29 02:43:58;;;;;;;7.65;6.53;;;15.90;99.90;;;;;;5035071;28;20583;-52
2022/06/29 02:46:24;;;;;;;9.23;5.88;;;15.90;99.90;;;;;;5031584;28;20033;-55
2022/06/29 02:48:50;;;;;;;10.50;6.88;;;15.90;99.90;;;;;;5042219;28;20045;-54
2022/06/29 02:51:15;;;;;;;8.55;6.57;;;15.90;99.90;;;;;;5037698;28;20045;-52
2022/06/29 02:53:41;;;;;;;10.57;6.22;;;15.90;99.90;;;;;;5035520;28;20078;-52
2022/06/29 02:56:07;;;;;;;8.98;6.50;;;15.80;99.90;;;;;;5018124;28;20294;-53
2022/06/29 02:58:33;;;;;;;10.05;6.00;;;15.80;99.90;;;;;;5040631;28;20500;-55
2022/06/29 03:00:59;;;;;;;10.05;6.03;;;15.80;99.90;;;;;;5023842;28;20176;-51
2022/06/29 03:03:25;;;;;;;7.47;6.13;;;15.80;99.90;;;;;;5045019;28;20192;-50
2022/06/29 03:05:51;;;;;;;9.95;6.82;;;15.90;99.90;;;;;;5036068;28;20064;-49
2022/06/29 03:08:17;;;;;;;8.73;6.15;;;15.80;99.90;;;;;;5043885;28;20034;-50
2022/06/29 03:10:42;;;;;;;11.27;7.90;;;15.80;99.90;;;;;;5042604;28;20472;-52
2022/06/29 03:13:08;;;;;;;6.65;5.60;;;15.80;99.90;;;;;;5038919;28;20174;-49
2022/06/29 03:15:34;;;;;;;12.60;7.00;;;15.80;99.90;;;;;;5044376;28;20583;-54
2022/06/29 03:17:59;;;;;;;13.30;6.78;;;15.80;99.90;;;;;;5024327;28;20602;-53
2022/06/29 03:20:26;;;;;;;10.95;6.97;;;15.80;99.90;;;;;;5045175;28;20041;-49
2022/06/29 03:22:51;;;;;;;11.02;7.10;;;15.80;99.90;;;;;;5039734;28;20041;-51
2022/06/29 03:25:17;;;;;;;8.73;6.45;;;15.70;99.90;;;;;;5043392;28;20044;-53
2022/06/29 03:27:43;;;;;;;7.18;6.10;;;15.70;99.90;;;;;;5037931;28;20128;-50
2022/06/29 03:30:09;;;;;;;9.27;6.80;;;15.70;99.90;;;;;;5041697;28;20400;-53
2022/06/29 03:32:35;;;;;;;8.85;6.43;;;15.70;99.90;;;;;;5049975;28;20176;-52
2022/06/29 03:35:01;;;;;;;9.85;7.18;;;15.70;99.90;;;;;;5021619;28;20046;-51
2022/06/29 03:37:27;;;;;;;9.30;6.53;;;15.70;99.90;;;;;;5035627;28;20033;-50
2022/06/29 03:39:53;;;;;;;8.18;6.78;;;15.70;99.90;;;;;;5025218;28;20059;-51
2022/06/29 03:42:18;;;;;;;9.00;6.85;;;15.70;99.90;;;;;;5041371;28;20075;-54
2022/06/29 03:44:44;;;;;;;7.82;6.30;;;15.70;99.90;;;;;;5045192;28;20029;-51
2022/06/29 03:47:10;;;;;;;8.95;6.57;;;15.70;99.90;;;;;;5038183;28;20131;-52
2022/06/29 03:49:36;;;;;;;7.47;6.25;;;15.70;99.90;;;;;;5034691;28;20073;-54
2022/06/29 03:52:03;;;;;;;12.68;7.15;;;15.70;99.90;;;;;;5035219;28;20502;-51
2022/06/29 03:54:29;;;;;;;7.18;6.35;;;15.70;99.90;;;;;;5042066;28;20458;-50
2022/06/29 03:56:55;;;;;;;9.07;7.00;;;15.80;99.90;;;;;;5036697;28;20041;-54
2022/06/29 03:59:21;;;;;;;6.50;5.80;;;15.80;99.90;;;;;;5042585;28;20063;-55
2022/06/29 04:01:47;;;;;;;6.90;6.05;;;15.80;99.90;;;;;;5043737;28;20570;-53
2022/06/29 04:04:14;;;;;;;7.28;5.85;;;15.80;99.90;;;;;;5043426;28;20511;-56
2022/06/29 04:06:40;;;;;;;11.65;7.00;;;15.80;99.90;;;;;;5038117;28;20325;-54
2022/06/29 04:09:06;;;;;;;10.35;5.78;;;15.90;99.90;;;;;;5041942;28;20047;-54
2022/06/29 04:11:52;;;;;;;8.00;6.25;;;15.90;99.90;;;;;;5033416;28;20042;-56
2022/06/29 04:14:25;;;;;;;7.28;6.13;;;15.90;99.90;;;;;;5028566;28;20061;-54
2022/06/29 04:16:54;;;;;;;6.93;6.15;;;15.90;99.90;;;;;;5033417;28;20290;-51
2022/06/29 04:19:20;;;;;;;9.82;6.32;;;15.90;99.90;;;;;;5044002;28;20048;-51
2022/06/29 04:21:46;;;;;;;10.57;6.03;;;15.90;99.90;;;;;;5042388;28;20033;-51
2022/06/29 04:24:12;;;;;;;7.63;5.47;;;15.90;99.90;;;;;;5023465;28;20072;-56
2022/06/29 04:26:39;;;;;;;7.72;5.78;;;16.00;99.90;;;;;;5017737;28;20078;-55
2022/06/29 04:29:05;;;;;;;8.27;6.70;;;16.00;99.90;;;;;;5020669;28;20130;-54
2022/06/29 04:31:30;;;;;;;6.88;5.80;;;16.10;99.90;;;;;;5041689;28;20504;-53
2022/06/29 04:33:56;;;;;;;7.80;6.40;;;16.10;99.90;;;;;;5045727;28;20180;-50
2022/06/29 04:36:22;;;;;;;7.93;6.07;;;16.20;99.90;;;;;;5036999;28;20029;-52
2022/06/29 04:38:47;;;;;;;8.93;6.18;;;16.20;99.90;;;;;;5062282;22;20044;-62
2022/06/29 04:41:15;;;;;;;9.55;6.45;;;16.30;99.90;;;;;;5048464;28;20048;-61
2022/06/29 04:43:41;;;;;;;11.70;6.13;;;16.30;99.90;;;;;;5041254;28;20039;-61
2022/06/29 04:46:19;;;;;;;7.20;5.68;;;16.40;99.90;;;;;;5039547;28;20229;-62
2022/06/29 04:48:51;;;;;;;7.45;5.63;;;16.40;99.90;;;;;;5043336;28;20150;-62
2022/06/29 04:51:17;;;;;;;7.75;5.88;;;16.40;99.90;;;;;;5047325;28;20033;-64
2022/06/29 04:53:45;;;;;;;9.38;5.88;;;16.60;99.90;;;;;;5040014;28;20427;-62
2022/06/29 04:56:12;;;;;;;7.43;5.70;;;16.60;99.90;;;;;;5043381;28;20396;-63
2022/06/29 04:58:38;;;;;;;7.45;5.05;;;16.70;99.90;;;;;;5036942;28;20114;-62
2022/06/29 05:01:05;;;;;;;9.57;5.03;;;16.80;99.90;;;;;;5008785;28;20446;-63
2022/06/29 05:03:30;;;;;;;6.07;5.00;;;16.90;99.90;;;;;;5021082;28;20134;-61
2022/06/29 05:05:56;;;;;;;8.38;4.88;;;16.90;99.90;;;;;;4967327;28;20065;-62
2022/06/29 05:08:22;;;;;;;5.75;4.68;;;17.00;99.90;;;;;;5021222;28;20037;-63
2022/06/29 05:10:47;;;;;;;7.03;4.75;;;17.00;99.90;;;;;;5015579;28;20049;-62
2022/06/29 05:13:13;;;;;;;7.25;4.53;;;17.00;99.90;;;;;;5022706;28;20055;-63
2022/06/29 05:15:39;;;;;;;7.47;5.32;;;17.00;99.90;;;;;;5021687;28;20067;-62
2022/06/29 05:18:05;;;;;;;7.53;4.97;;;17.10;99.90;;;;;;5007888;28;20199;-63
2022/06/29 05:20:31;;;;;;;7.03;5.22;;;17.10;99.90;;;;;;5010181;28;20049;-63
2022/06/29 05:22:57;;;;;;;7.22;4.78;;;17.10;99.90;;;;;;5022468;28;20045;-63
2022/06/29 05:25:23;;;;;;;5.82;5.18;;;17.10;99.90;;;;;;4991944;28;20404;-63
2022/06/29 05:27:49;;;;;;;6.18;5.05;;;17.10;99.90;;;;;;5015660;28;20033;-63
2022/06/29 05:30:15;;;;;;;7.22;5.15;;;17.00;99.90;;;;;;5012898;28;20660;-63
2022/06/29 05:32:41;;;;;;;7.93;4.43;;;17.10;99.90;;;;;;5005993;28;20044;-62
2022/06/29 05:35:08;;;;;;;6.75;5.43;;;17.10;99.90;;;;;;5011232;28;20041;-65
2022/06/29 05:37:34;;;;;;;7.95;5.40;;;17.20;99.90;;;;;;5011212;28;20030;-65
2022/06/29 05:40:00;;;;;;;8.05;5.07;;;17.30;99.90;;;;;;5007547;28;20418;-63
2022/06/29 05:42:26;;;;;;;7.50;4.90;;;17.50;99.90;;;;;;5009620;28;20037;-64
2022/06/29 05:44:51;;;;;;;8.27;5.03;;;17.60;99.90;;;;;;5008838;28;20037;-64
2022/06/29 05:47:17;;;;;;;7.30;5.45;;;17.60;99.90;;;;;;5008893;28;20548;-65
2022/06/29 05:49:44;;;;;;;6.40;4.25;;;17.70;99.90;;;;;;5010120;28;20084;-65
2022/06/29 05:52:10;;;;;;;7.00;5.10;;;17.70;99.90;;;;;;5022869;28;20043;-64
2022/06/29 05:54:35;;;;;;;6.88;5.35;;;17.70;99.90;;;;;;5023875;28;20084;-65
2022/06/29 05:57:02;;;;;;;8.02;5.28;;;17.70;99.90;;;;;;5010455;28;20440;-64
2022/06/29 05:59:27;;;;;;;8.13;5.57;;;17.80;99.90;;;;;;5015361;28;20303;-64
2022/06/29 06:01:53;;;;;;;6.93;5.47;;;17.90;99.90;;;;;;5016817;28;20049;-64
2022/06/29 06:04:19;;;;;;;8.93;5.35;;;18.00;99.90;;;;;;5019126;28;20057;-64
2022/06/29 06:06:45;;;;;;;6.75;5.35;;;18.10;99.90;;;;;;5009355;28;20790;-64
2022/06/29 06:09:10;;;;;;;6.05;5.10;;;18.10;99.90;;;;;;5009165;28;20046;-64
2022/06/29 06:11:36;;;;;;;6.70;5.25;;;18.10;99.90;;;;;;5006066;28;20129;-63
2022/06/29 06:14:03;;;;;;;7.15;5.25;;;18.10;99.90;;;;;;5015980;28;20226;-65
2022/06/29 06:16:28;;;;;;;6.28;4.93;;;18.20;99.90;;;;;;5013528;28;20041;-65
2022/06/29 06:18:54;;;;;;;7.28;4.97;;;18.40;99.90;;;;;;5014995;28;20045;-65
2022/06/29 06:21:21;;;;;;;5.35;4.85;;;18.50;99.90;;;;;;5019026;28;20120;-64
2022/06/29 06:23:47;;;;;;;6.68;4.60;;;18.60;99.90;;;;;;5020414;28;20143;-65
2022/06/29 06:26:13;;;;;;;7.65;5.25;;;18.80;99.90;;;;;;5024955;28;20048;-64
2022/06/29 06:28:40;;;;;;;6.85;4.95;;;18.90;99.90;;;;;;5016370;28;20033;-64
2022/06/29 06:31:07;;;;;;;8.68;4.57;;;19.00;99.90;;;;;;5016634;28;20059;-65
2022/06/29 06:33:33;;;;;;;5.57;4.43;;;19.10;99.90;;;;;;5019319;28;20039;-63
2022/06/29 06:35:59;;;;;;;5.57;3.92;;;19.20;99.90;;;;;;5021357;28;20037;-63
2022/06/29 06:38:25;;;;;;;5.82;4.55;;;19.40;99.90;;;;;;5023469;28;20030;-63
2022/06/29 06:43:35;;;;;;;5.22;4.00;;;19.60;99.90;;;;;;5015290;28;20049;-63
2022/06/29 06:46:01;;;;;;;4.55;3.75;;;19.70;99.90;;;;;;5027915;28;20244;-63
2022/06/29 06:48:27;;;;;;;5.40;4.10;;;19.80;99.90;;;;;;4997730;28;20053;-63
2022/06/29 06:50:53;;;;;;;12.80;4.18;;;19.90;99.90;;;;;;5017137;28;20204;-64
2022/06/29 06:53:18;;;;;;;7.30;3.33;;;20.00;99.90;;;;;;5014667;28;20034;-64
2022/06/29 06:55:44;;;;;;;5.60;3.20;;;20.10;99.90;;;;;;5013324;28;20132;-64
2022/06/29 06:58:10;;;;;;;3.63;3.08;;;20.20;99.90;;;;;;4993267;28;20479;-63
2022/06/29 07:00:36;;;;;;;4.43;2.70;;;20.30;99.90;;;;;;5015596;28;20041;-63
2022/06/29 07:03:02;;;;;;;5.32;3.58;;;20.40;99.90;;;;;;5011944;28;20484;-63
2022/06/29 07:05:27;;;;;;;6.03;2.90;;;20.40;99.90;;;;;;5012167;28;20091;-63
2022/06/29 07:07:53;;;;;;;5.13;3.03;;;20.50;99.90;;;;;;5010472;28;20064;-63
2022/06/29 07:10:19;;;;;;;6.53;3.00;;;20.60;99.90;;;;;;4992967;28;20650;-63
2022/06/29 07:12:44;;;;;;;4.70;3.20;;;20.70;99.90;;;;;;5009919;28;20037;-63
2022/06/29 07:15:10;;;;;;;7.15;4.25;;;20.70;99.90;;;;;;5009024;28;20396;-62
2022/06/29 07:17:36;;;;;;;5.20;2.65;;;20.90;99.90;;;;;;5011661;28;20037;-64
2022/06/29 07:20:02;;;;;;;3.53;2.63;;;21.00;99.90;;;;;;5017020;28;20124;-63
2022/06/29 07:22:27;;;;;;;4.82;2.50;;;21.10;99.90;;;;;;5015004;28;20052;-62
2022/06/29 07:24:53;;;;;;;5.60;2.30;;;21.30;99.90;;;;;;5014987;28;20041;-63
2022/06/29 07:27:19;;;;;;;5.90;2.50;;;21.30;99.90;;;;;;5013848;28;20053;-61
2022/06/29 07:29:45;;;;;;;5.60;2.00;;;21.50;99.90;;;;;;5024704;28;20201;-61
2022/06/29 07:32:19;;;;;;;4.60;2.63;;;21.60;99.90;;;;;;5035743;28;20041;-62
2022/06/29 07:34:46;;;;;;;4.22;1.98;;;21.80;99.80;;;;;;5008870;28;20515;-62
2022/06/29 07:37:11;;;;;;;3.40;1.83;;;21.90;99.70;;;;;;5027491;28;20103;-61
2022/06/29 07:39:37;;;;;;;5.47;1.55;;;21.90;99.60;;;;;;5028551;28;20535;-62
2022/06/29 07:42:04;;;;;;;3.38;1.70;;;22.00;99.10;;;;;;5026726;28;20123;-61
2022/06/29 07:44:30;;;;;;;3.53;1.90;;;22.00;99.20;;;;;;5010953;28;20066;-62
2022/06/29 07:46:56;;;;;;;6.13;2.03;;;22.20;98.90;;;;;;5026786;28;20041;-62
2022/06/29 07:49:22;;;;;;;4.68;1.60;;;22.30;98.30;;;;;;5035182;28;20040;-61
2022/06/29 07:51:48;;;;;;;4.03;1.90;;;22.40;98.80;;;;;;5023414;28;20268;-63
2022/06/29 07:54:15;;;;;;;2.28;1.52;;;22.40;97.90;;;;;;5024961;28;20049;-63
2022/06/29 07:56:40;;;;;;;3.95;2.08;;;22.60;97.70;;;;;;5024793;28;20117;-62
2022/06/29 07:59:06;;;;;;;2.58;1.65;;;22.60;98.00;;;;;;5026192;28;20167;-63
2022/06/29 08:01:32;;;;;;;3.88;1.77;;;22.70;98.30;;;;;;5020739;28;20555;-61
2022/06/29 08:03:57;;;;;;;3.58;1.60;;;22.80;98.30;;;;;;5022001;28;20053;-63
2022/06/29 08:06:24;;;;;;;3.47;1.95;;;22.90;98.10;;;;;;5026131;28;20068;-63
2022/06/29 08:08:51;;;;;;;5.95;2.28;;;23.00;97.90;;;;;;5028512;28;20118;-61
2022/06/29 08:11:18;;;;;;;4.97;1.90;;;23.10;97.90;;;;;;5026891;28;20048;-62
2022/06/29 08:13:43;;;;;;;3.53;1.50;;;23.20;97.00;;;;;;5028604;28;20649;-62
2022/06/29 08:16:09;;;;;;;3.40;1.42;;;23.20;96.80;;;;;;5026012;28;20033;-62
2022/06/29 08:18:36;;;;;;;3.00;1.60;;;23.40;96.90;;;;;;5024999;28;20037;-63
2022/06/29 08:21:05;;;;;;;4.45;2.00;;;23.50;96.80;;;;;;5017114;28;20033;-61
2022/06/29 08:23:31;;;;;;;3.20;1.60;;;23.50;95.60;;;;;;5028912;28;20044;-61
2022/06/29 08:25:57;;;;;;;3.88;1.70;;;23.60;95.40;;;;;;5043466;28;20383;-61
2022/06/29 08:28:25;;;;;;;2.45;1.63;;;23.70;95.70;;;;;;5026305;28;20052;-61
2022/06/29 08:30:50;;;;;;;3.58;1.58;;;23.80;95.80;;;;;;5020506;28;20516;-62
2022/06/29 08:33:17;;;;;;;3.42;1.65;;;23.90;96.10;;;;;;5027883;28;20038;-61
2022/06/29 08:35:43;;;;;;;3.25;1.77;;;24.00;95.80;;;;;;5023072;28;20045;-61
2022/06/29 08:38:09;;;;;;;5.30;1.70;;;24.20;95.70;;;;;;5020813;28;20532;-61
2022/06/29 08:40:46;;;;;;;2.97;1.98;;;24.20;95.10;;;;;;5026373;28;20079;-62
2022/06/29 08:43:14;;;;;;;3.30;1.58;;;24.30;94.40;;;;;;5025549;28;20076;-62
2022/06/29 08:45:45;;;;;;;5.63;1.70;;;24.40;95.30;;;;;;5007589;28;20041;-62
2022/06/29 08:48:12;;;;;;;2.97;1.60;;;24.50;95.10;;;;;;5010341;28;20423;-62
2022/06/29 08:50:40;;;;;;;2.47;1.38;;;24.60;94.50;;;;;;5027373;28;20180;-61
2022/06/29 08:53:07;;;;;;;2.75;1.80;;;24.70;95.00;;;;;;5021279;28;20041;-62
2022/06/29 08:55:38;;;;;;;3.17;1.67;;;24.70;92.90;;;;;;5021873;28;20213;-61
2022/06/29 08:58:06;;;;;;;3.80;1.90;;;24.80;94.10;;;;;;5021423;28;20065;-61
2022/06/29 09:00:36;;;;;;;4.13;1.65;;;24.90;94.40;;;;;;5023650;28;20052;-61
2022/06/29 09:03:04;;;;;;;2.10;1.40;;;25.00;94.20;;;;;;5025342;28;20033;-62
2022/06/29 09:05:33;;;;;;;4.03;1.38;;;25.10;94.30;;;;;;5022425;28;20037;-61
2022/06/29 09:07:59;;;;;;;5.88;1.50;;;25.20;94.30;;;;;;5021452;28;20037;-61
2022/06/29 09:10:29;;;;;;;6.28;1.77;;;25.30;93.20;;;;;;5017455;28;20041;-62
2022/06/29 09:12:58;;;;;;;3.15;1.58;;;25.20;93.10;;;;;;5025374;28;20042;-62
2022/06/29 09:15:35;;;;;;;3.97;1.40;;;25.30;92.70;;;;;;5023465;28;20115;-62
2022/06/29 09:18:02;;;;;;;4.30;1.75;;;25.40;92.70;;;;;;5020034;28;20043;-62
2022/06/29 09:20:39;;;;;;;3.83;1.70;;;25.50;92.00;;;;;;5011827;28;20500;-62
2022/06/29 09:23:09;;;;;;;3.35;1.70;;;25.60;92.80;;;;;;5023707;28;20488;-61
2022/06/29 09:25:41;;;;;;;3.17;1.65;;;25.70;92.20;;;;;;5015120;28;20057;-62
2022/06/29 09:28:24;;;;;;;4.50;1.90;;;25.80;92.50;;;;;;5020706;28;20068;-61
2022/06/29 09:30:54;;;;;;;3.58;1.67;;;25.90;91.90;;;;;;5024687;28;20095;-61
2022/06/29 09:33:25;;;;;;;2.80;1.50;;;26.00;92.20;;;;;;5021493;28;20045;-63
2022/06/29 09:36:12;;;;;;;3.92;1.58;;;26.20;92.20;;;;;;5022583;28;20030;-62
2022/06/29 09:38:38;;;;;;;3.30;1.60;;;26.10;90.10;;;;;;5017715;28;20091;-61
2022/06/29 09:41:13;;;;;;;2.58;1.42;;;26.00;91.50;;;;;;5021248;28;20117;-63
2022/06/29 09:43:40;;;;;;;3.60;1.77;;;26.00;91.00;;;;;;5026436;28;20065;-63
2022/06/29 09:46:08;;;;;;;2.90;1.60;;;26.10;91.30;;;;;;5025483;28;20041;-64
2022/06/29 09:48:35;;;;;;;3.15;1.58;;;26.20;89.70;;;;;;5024762;28;20042;-63
2022/06/29 09:51:30;;;;;;;3.88;1.55;;;26.20;90.90;;;;;;5027757;28;20199;-63
2022/06/29 09:53:50;;;;;;;5.72;1.75;;;26.30;90.60;;;;;;5028456;28;20049;-63
2022/06/29 09:56:18;;;;;;;2.28;1.40;;;26.30;90.30;;;;;;5044677;28;20500;-63
2022/06/29 09:58:49;;;;;;;3.90;1.60;;;26.00;88.60;;;;;;5027298;28;20188;-62
2022/06/29 10:04:01;;;;;;;4.07;1.70;;;26.30;90.60;;;;;;5029293;28;20049;-61
2022/06/29 10:06:28;;;;;;;2.75;1.60;;;26.40;89.10;;;;;;5027494;28;20507;-63
2022/06/29 10:08:55;;;;;;;3.47;1.58;;;26.30;88.00;;;;;;5027671;28;20045;-62
2022/06/29 10:14:41;;;;;;;3.20;1.58;;;26.50;89.80;;;;;;5027997;28;20045;-61
2022/06/29 10:17:25;;;;;;;3.88;1.63;;;26.60;89.40;;;;;;4991260;28;20041;-63
2022/06/29 10:20:09;;;;;;;2.58;1.38;;;26.70;88.40;;;;;;5027881;28;20046;-62
2022/06/29 10:22:35;;;;;;;2.05;1.70;;;26.70;89.60;;;;;;5033734;28;20045;-60
2022/06/29 10:25:06;;;;;;;1.88;1.30;;;26.80;87.40;;;;;;5024708;28;20034;-60
2022/06/29 10:27:32;;;;;;;4.55;1.40;;;26.90;87.30;;;;;;5020629;28;20049;-62
2022/06/29 10:30:19;;;;;;;4.78;1.80;;;27.00;86.10;;;;;;5027380;28;20103;-64
2022/06/29 10:32:46;;;;;;;2.95;1.83;;;27.20;85.10;;;;;;5027803;28;20184;-61
2022/06/29 10:35:11;;;;;;;4.28;2.03;;;27.30;84.10;;;;;;5025966;28;20049;-61
2022/06/29 10:37:52;;;;;;;3.05;1.80;;;27.50;87.70;;;;;;5028329;28;20060;-62
2022/06/29 10:40:22;;;;;;;2.38;1.63;;;27.60;83.10;;;;;;5048265;22;20040;-54
2022/06/29 10:45:33;;;;;;;3.30;1.77;;;27.60;79.70;;;;;;5049717;28;20033;-59
2022/06/29 10:48:01;;;;;;;4.97;1.80;;;27.60;78.60;;;;;;5025290;28;20033;-57
2022/06/29 10:50:31;;;;;;;3.30;1.65;;;27.70;78.70;;;;;;5025317;28;20403;-57
2022/06/29 10:53:02;;;;;;;3.33;1.80;;;27.80;78.10;;;;;;5008927;28;20073;-54
2022/06/29 10:55:30;;;;;;;1.77;1.38;;;28.00;79.30;;;;;;5028716;28;20694;-54
2022/06/29 10:57:57;;;;;;;3.00;1.50;;;28.10;77.00;;;;;;5000986;28;20056;-59
2022/06/29 11:00:29;;;;;;;2.78;1.38;;;28.20;77.40;;;;;;5003367;28;20044;-57
2022/06/29 11:02:54;;;;;;;2.72;1.50;;;28.40;76.80;;;;;;4980238;28;21914;-57
2022/06/29 11:05:20;;;;;;;3.13;1.40;;;28.40;75.00;;;;;;5000286;28;20045;-53
2022/06/29 11:13:23;;;;;;;1.70;1.55;;;28.70;72.50;;;;;;4992808;28;20045;-56
2022/06/29 11:15:52;;;;;;;3.92;1.50;;;28.80;68.90;;;;;;4994809;28;20512;-56
2022/06/29 11:18:21;;;;;;;1.98;1.60;;;28.70;68.90;;;;;;5003752;28;20083;-59
2022/06/29 11:20:49;;;;;;;1.90;1.23;;;28.80;70.50;;;;;;4989241;28;20277;-55
2022/06/29 11:23:17;;;;;;;2.33;1.55;;;29.00;67.10;;;;;;4975510;28;20057;-55
2022/06/29 11:25:56;;;;;;;1.65;1.40;;;29.20;67.40;;;;;;4987364;28;20046;-56
2022/06/29 11:28:25;;;;;;;2.53;1.60;;;29.20;68.20;;;;;;4981804;28;20052;-59
2022/06/29 11:31:11;;;;;;;2.70;1.70;;;29.20;67.10;;;;;;5002288;28;20038;-57
2022/06/29 11:33:41;;;;;;;3.60;1.60;;;29.10;66.20;;;;;;5003051;28;20034;-55
2022/06/29 11:36:09;;;;;;;2.67;1.52;;;29.00;68.20;;;;;;5005912;28;20084;-57
2022/06/29 11:38:50;;;;;;;5.57;2.33;;;28.70;66.00;;;;;;5001775;28;20076;-58
2022/06/29 11:41:18;;;;;;;2.17;1.35;;;28.50;67.30;;;;;;4994886;28;20600;-55
2022/06/29 11:43:45;;;;;;;1.90;1.35;;;28.40;69.80;;;;;;4983093;28;20392;-55
2022/06/29 11:46:21;;;;;;;2.38;1.73;;;28.40;68.00;;;;;;4986166;28;20136;-53
2022/06/29 11:51:55;;;;;;;2.78;1.35;;;28.90;68.40;;;;;;4996331;28;20500;-55
2022/06/29 11:54:47;;;;;;;3.55;1.45;;;29.00;66.80;;;;;;5006718;28;20171;-61
2022/06/29 11:57:15;;;;;;;3.30;1.38;;;28.90;66.60;;;;;;4995280;28;20502;-53
2022/06/29 11:59:44;;;;;;;3.97;1.38;;;28.70;66.60;;;;;;5003814;28;20038;-54
2022/06/29 12:02:11;;;;;;;2.25;1.50;;;28.50;66.70;;;;;;4984715;28;20510;-62
2022/06/29 12:04:37;;;;;;;2.67;1.42;;;28.60;67.80;;;;;;5004171;28;20042;-57
2022/06/29 12:07:11;;;;;;;3.70;1.50;;;28.90;68.20;;;;;;5011704;28;20072;-55
2022/06/29 12:09:39;;;;;;;3.78;1.48;;;29.20;67.60;;;;;;5007206;28;20132;-55
2022/06/29 12:12:07;;;;;;;2.15;1.50;;;29.40;66.80;;;;;;5010853;28;20037;-55
2022/06/29 12:14:33;;;;;;;4.38;1.40;;;29.70;67.00;;;;;;4984967;28;20135;-60
2022/06/29 12:16:59;;;;;;;2.88;1.60;;;30.00;65.80;;;;;;4980609;28;20029;-59
2022/06/29 12:19:25;;;;;;;1.70;1.20;;;30.10;64.20;;;;;;4999559;28;20075;-53
2022/06/29 12:21:51;;;;;;;3.38;1.50;;;30.30;64.20;;;;;;4995521;28;20033;-55
2022/06/29 12:24:18;;;;;;;1.67;1.15;;;30.40;64.70;;;;;;5000010;28;20061;-51
2022/06/29 12:26:44;;;;;;;3.13;1.45;;;30.40;61.70;;;;;;5004175;28;20038;-56
2022/06/29 12:29:11;;;;;;;3.03;1.30;;;30.40;60.90;;;;;;4987789;28;20092;-62
2022/06/29 12:31:37;;;;;;;2.22;1.33;;;30.40;58.80;;;;;;4983449;28;20046;-58
2022/06/29 12:34:03;;;;;;;3.80;1.33;;;30.50;58.50;;;;;;4985640;28;20041;-55
2022/06/29 12:36:29;;;;;;;1.40;1.27;;;30.50;61.70;;;;;;4974250;28;20045;-54
2022/06/29 12:38:56;;;;;;;2.58;1.35;;;30.70;60.10;;;;;;5016436;28;20107;-53
2022/06/29 12:41:21;;;;;;;2.40;1.33;;;30.60;59.10;;;;;;5012595;28;20119;-56
2022/06/29 12:43:47;;;;;;;3.22;1.65;;;30.70;59.10;;;;;;5010544;28;20555;-58
2022/06/29 12:46:13;;;;;;;1.50;1.20;;;30.70;58.50;;;;;;4976522;28;20171;-56
2022/06/29 12:48:39;;;;;;;3.15;1.48;;;30.70;58.40;;;;;;4999108;28;20048;-53
2022/06/29 12:51:06;;;;;;;2.75;1.30;;;30.50;57.50;;;;;;4999956;28;20423;-56
2022/06/29 12:53:31;;;;;;;1.95;1.50;;;30.10;57.70;;;;;;4997574;28;20037;-56
2022/06/29 12:55:59;;;;;;;4.43;1.50;;;29.80;58.60;;;;;;4987159;28;20053;-51
2022/06/29 12:58:25;;;;;;;2.80;1.40;;;29.40;58.20;;;;;;4990332;28;20518;-59
2022/06/29 13:00:51;;;;;;;2.45;1.40;;;29.30;59.10;;;;;;4986616;28;20728;-59
2022/06/29 13:03:17;;;;;;;2.72;1.60;;;29.20;59.00;;;;;;5001855;28;20072;-51
2022/06/29 13:05:43;;;;;;;2.42;1.48;;;29.50;62.30;;;;;;5002385;28;20566;-52
2022/06/29 13:08:10;;;;;;;2.20;1.50;;;29.80;59.80;;;;;;4988797;28;20051;-57
2022/06/29 13:10:36;;;;;;;2.47;1.17;;;29.80;58.20;;;;;;5019192;28;20100;-53